Terminal Aerodrome Forecast
Issued by NWS

Home | Current Version | Previous Version | Text Only | Print | Product List | Glossary On
Versions: 1 2 3 4 5 6 7 8 9 10 11 12 13 14 15 16 17 18 19
000
FTUS42 KILM 230500
TAFCRE
TAF
KCRE 230539Z 2306/2406 27006KT P6SM SCT100
     FM231300 35011G17KT P6SM SKC
     FM232200 34008KT P6SM SKC
     FM240000 03002KT P6SM SKC=

USA.gov is the U.S. government's official web portal to all federal, state and local government web resources and services.